sensor_id;sensor_type;location;lat;lon;timestamp;P1;durP1;ratioP1;P2;durP2;ratioP2
20124;SDS011;10223;50.862;4.360;2023-10-31T00:00:02;23.67;;;13.33;;
20124;SDS011;10223;50.862;4.360;2023-10-31T00:02:31;28.53;;;13.53;;
20124;SDS011;10223;50.862;4.360;2023-10-31T00:04:58;25.87;;;12.13;;
20124;SDS011;10223;50.862;4.360;2023-10-31T00:07:25;23.63;;;12.47;;
20124;SDS011;10223;50.862;4.360;2023-10-31T00:09:52;22.43;;;12.20;;
20124;SDS011;10223;50.862;4.360;2023-10-31T00:12:19;21.67;;;11.90;;
20124;SDS011;10223;50.862;4.360;2023-10-31T00:14:45;19.10;;;10.53;;
20124;SDS011;10223;50.862;4.360;2023-10-31T00:17:12;19.10;;;9.87;;
20124;SDS011;10223;50.862;4.360;2023-10-31T00:19:40;18.27;;;10.03;;
20124;SDS011;10223;50.862;4.360;2023-10-31T00:22:07;19.90;;;9.13;;
20124;SDS011;10223;50.862;4.360;2023-10-31T00:24:34;17.03;;;9.53;;
20124;SDS011;10223;50.862;4.360;2023-10-31T00:27:01;18.73;;;10.00;;
20124;SDS011;10223;50.862;4.360;2023-10-31T00:29:28;16.37;;;8.83;;
20124;SDS011;10223;50.862;4.360;2023-10-31T00:31:54;18.17;;;9.90;;
20124;SDS011;10223;50.862;4.360;2023-10-31T00:34:21;14.43;;;9.30;;
20124;SDS011;10223;50.862;4.360;2023-10-31T00:36:49;16.93;;;8.67;;
20124;SDS011;10223;50.862;4.360;2023-10-31T00:39:16;16.03;;;8.77;;
20124;SDS011;10223;50.862;4.360;2023-10-31T00:41:43;14.80;;;8.73;;
20124;SDS011;10223;50.862;4.360;2023-10-31T00:44:11;18.73;;;8.53;;
20124;SDS011;10223;50.862;4.360;2023-10-31T00:46:38;12.00;;;8.17;;
20124;SDS011;10223;50.862;4.360;2023-10-31T00:49:04;14.17;;;8.20;;
20124;SDS011;10223;50.862;4.360;2023-10-31T00:51:31;14.00;;;8.00;;
20124;SDS011;10223;50.862;4.360;2023-10-31T00:54:00;12.63;;;7.73;;
20124;SDS011;10223;50.862;4.360;2023-10-31T00:56:26;11.90;;;8.00;;
20124;SDS011;10223;50.862;4.360;2023-10-31T00:58:53;14.93;;;7.30;;
20124;SDS011;10223;50.862;4.360;2023-10-31T01:01:20;19.33;;;7.73;;
20124;SDS011;10223;50.862;4.360;2023-10-31T01:03:47;13.43;;;7.67;;
20124;SDS011;10223;50.862;4.360;2023-10-31T01:06:13;13.70;;;7.83;;
20124;SDS011;10223;50.862;4.360;2023-10-31T01:08:40;13.10;;;7.60;;
20124;SDS011;10223;50.862;4.360;2023-10-31T01:11:09;13.77;;;7.57;;
20124;SDS011;10223;50.862;4.360;2023-10-31T01:13:35;13.20;;;7.37;;
20124;SDS011;10223;50.862;4.360;2023-10-31T01:16:03;14.87;;;7.50;;
20124;SDS011;10223;50.862;4.360;2023-10-31T01:18:28;12.60;;;7.07;;
20124;SDS011;10223;50.862;4.360;2023-10-31T01:20:55;14.23;;;8.17;;
20124;SDS011;10223;50.862;4.360;2023-10-31T01:23:22;11.33;;;8.03;;
20124;SDS011;10223;50.862;4.360;2023-10-31T01:25:49;11.37;;;7.47;;
20124;SDS011;10223;50.862;4.360;2023-10-31T01:28:17;12.50;;;7.47;;
20124;SDS011;10223;50.862;4.360;2023-10-31T01:30:44;11.50;;;7.33;;
20124;SDS011;10223;50.862;4.360;2023-10-31T01:33:11;12.37;;;7.43;;
20124;SDS011;10223;50.862;4.360;2023-10-31T01:35:38;12.87;;;7.47;;
20124;SDS011;10223;50.862;4.360;2023-10-31T01:38:04;13.93;;;7.70;;
20124;SDS011;10223;50.862;4.360;2023-10-31T01:40:31;12.87;;;7.53;;
20124;SDS011;10223;50.862;4.360;2023-10-31T01:42:58;13.53;;;7.77;;
20124;SDS011;10223;50.862;4.360;2023-10-31T01:45:26;14.13;;;7.93;;
20124;SDS011;10223;50.862;4.360;2023-10-31T01:47:53;9.70;;;6.57;;
20124;SDS011;10223;50.862;4.360;2023-10-31T01:50:20;11.23;;;7.03;;
20124;SDS011;10223;50.862;4.360;2023-10-31T01:52:47;13.20;;;7.00;;
20124;SDS011;10223;50.862;4.360;2023-10-31T01:55:14;9.87;;;6.67;;
20124;SDS011;10223;50.862;4.360;2023-10-31T01:57:41;10.90;;;7.07;;
20124;SDS011;10223;50.862;4.360;2023-10-31T02:00:12;11.67;;;6.93;;
20124;SDS011;10223;50.862;4.360;2023-10-31T02:02:41;9.93;;;7.00;;
20124;SDS011;10223;50.862;4.360;2023-10-31T02:05:09;11.57;;;7.47;;
20124;SDS011;10223;50.862;4.360;2023-10-31T02:07:36;10.63;;;7.07;;
20124;SDS011;10223;50.862;4.360;2023-10-31T02:10:02;11.50;;;7.17;;
20124;SDS011;10223;50.862;4.360;2023-10-31T02:12:33;10.07;;;6.33;;
20124;SDS011;10223;50.862;4.360;2023-10-31T02:15:01;10.80;;;7.23;;
20124;SDS011;10223;50.862;4.360;2023-10-31T02:17:28;11.47;;;7.27;;
20124;SDS011;10223;50.862;4.360;2023-10-31T02:19:56;9.47;;;6.70;;
20124;SDS011;10223;50.862;4.360;2023-10-31T02:22:24;10.90;;;7.37;;
20124;SDS011;10223;50.862;4.360;2023-10-31T02:24:51;10.27;;;7.23;;
20124;SDS011;10223;50.862;4.360;2023-10-31T02:27:18;12.27;;;7.70;;
20124;SDS011;10223;50.862;4.360;2023-10-31T02:29:44;12.50;;;7.20;;
20124;SDS011;10223;50.862;4.360;2023-10-31T02:32:11;11.17;;;7.40;;
20124;SDS011;10223;50.862;4.360;2023-10-31T02:34:38;11.70;;;7.30;;
20124;SDS011;10223;50.862;4.360;2023-10-31T02:37:05;10.27;;;7.77;;
20124;SDS011;10223;50.862;4.360;2023-10-31T02:39:33;9.40;;;7.13;;
20124;SDS011;10223;50.862;4.360;2023-10-31T02:42:00;9.60;;;7.10;;
20124;SDS011;10223;50.862;4.360;2023-10-31T02:44:27;11.33;;;6.83;;
20124;SDS011;10223;50.862;4.360;2023-10-31T02:46:53;11.57;;;7.77;;
20124;SDS011;10223;50.862;4.360;2023-10-31T02:49:20;12.63;;;7.00;;
20124;SDS011;10223;50.862;4.360;2023-10-31T02:51:47;14.33;;;7.97;;
20124;SDS011;10223;50.862;4.360;2023-10-31T02:54:14;16.13;;;7.53;;
20124;SDS011;10223;50.862;4.360;2023-10-31T02:56:42;11.17;;;7.00;;
20124;SDS011;10223;50.862;4.360;2023-10-31T02:59:09;11.03;;;7.47;;
20124;SDS011;10223;50.862;4.360;2023-10-31T03:01:35;11.13;;;7.43;;
20124;SDS011;10223;50.862;4.360;2023-10-31T03:04:02;14.00;;;7.93;;
20124;SDS011;10223;50.862;4.360;2023-10-31T03:06:29;12.77;;;7.27;;
20124;SDS011;10223;50.862;4.360;2023-10-31T03:08:56;12.80;;;7.30;;
20124;SDS011;10223;50.862;4.360;2023-10-31T03:11:23;9.03;;;7.00;;
20124;SDS011;10223;50.862;4.360;2023-10-31T03:13:52;12.93;;;7.63;;
20124;SDS011;10223;50.862;4.360;2023-10-31T03:16:19;9.57;;;6.83;;
20124;SDS011;10223;50.862;4.360;2023-10-31T03:18:46;8.73;;;6.93;;
20124;SDS011;10223;50.862;4.360;2023-10-31T03:21:13;11.87;;;7.93;;
20124;SDS011;10223;50.862;4.360;2023-10-31T03:23:41;10.00;;;7.47;;
20124;SDS011;10223;50.862;4.360;2023-10-31T03:26:08;12.03;;;8.27;;
20124;SDS011;10223;50.862;4.360;2023-10-31T03:28:35;11.73;;;8.27;;
20124;SDS011;10223;50.862;4.360;2023-10-31T03:31:03;11.30;;;8.07;;
20124;SDS011;10223;50.862;4.360;2023-10-31T03:33:30;13.67;;;9.47;;
20124;SDS011;10223;50.862;4.360;2023-10-31T03:35:57;12.07;;;8.27;;
20124;SDS011;10223;50.862;4.360;2023-10-31T03:38:24;11.80;;;8.50;;
20124;SDS011;10223;50.862;4.360;2023-10-31T03:40:51;12.93;;;9.07;;
20124;SDS011;10223;50.862;4.360;2023-10-31T03:43:18;57.40;;;34.10;;
20124;SDS011;10223;50.862;4.360;2023-10-31T03:45:45;13.93;;;9.23;;
20124;SDS011;10223;50.862;4.360;2023-10-31T03:48:15;12.87;;;8.40;;
20124;SDS011;10223;50.862;4.360;2023-10-31T03:50:42;17.30;;;10.37;;
20124;SDS011;10223;50.862;4.360;2023-10-31T03:53:09;16.63;;;9.30;;
20124;SDS011;10223;50.862;4.360;2023-10-31T03:55:36;19.57;;;8.40;;
20124;SDS011;10223;50.862;4.360;2023-10-31T03:58:03;16.30;;;9.50;;
20124;SDS011;10223;50.862;4.360;2023-10-31T04:00:30;13.47;;;8.87;;
20124;SDS011;10223;50.862;4.360;2023-10-31T04:02:57;12.87;;;9.57;;
20124;SDS011;10223;50.862;4.360;2023-10-31T04:05:25;13.33;;;9.20;;
20124;SDS011;10223;50.862;4.360;2023-10-31T04:07:52;13.63;;;9.70;;
20124;SDS011;10223;50.862;4.360;2023-10-31T04:10:21;12.67;;;9.40;;
20124;SDS011;10223;50.862;4.360;2023-10-31T04:12:48;14.53;;;10.57;;
20124;SDS011;10223;50.862;4.360;2023-10-31T04:15:15;17.33;;;11.20;;
20124;SDS011;10223;50.862;4.360;2023-10-31T04:17:42;18.43;;;10.90;;
20124;SDS011;10223;50.862;4.360;2023-10-31T04:20:09;14.47;;;10.37;;
20124;SDS011;10223;50.862;4.360;2023-10-31T04:22:37;17.33;;;10.07;;
20124;SDS011;10223;50.862;4.360;2023-10-31T04:25:05;17.37;;;10.93;;
20124;SDS011;10223;50.862;4.360;2023-10-31T04:27:32;16.87;;;10.77;;
20124;SDS011;10223;50.862;4.360;2023-10-31T04:29:59;16.53;;;10.93;;
20124;SDS011;10223;50.862;4.360;2023-10-31T04:32:25;20.80;;;12.33;;
20124;SDS011;10223;50.862;4.360;2023-10-31T04:34:52;17.40;;;11.57;;
20124;SDS011;10223;50.862;4.360;2023-10-31T04:37:19;18.57;;;11.63;;
20124;SDS011;10223;50.862;4.360;2023-10-31T04:39:47;20.13;;;11.10;;
20124;SDS011;10223;50.862;4.360;2023-10-31T04:42:15;16.93;;;11.77;;
20124;SDS011;10223;50.862;4.360;2023-10-31T04:44:42;19.80;;;11.83;;
20124;SDS011;10223;50.862;4.360;2023-10-31T04:47:09;19.03;;;12.47;;
20124;SDS011;10223;50.862;4.360;2023-10-31T04:49:36;20.40;;;11.40;;
20124;SDS011;10223;50.862;4.360;2023-10-31T04:52:03;23.03;;;12.17;;
20124;SDS011;10223;50.862;4.360;2023-10-31T04:54:31;20.10;;;11.63;;
20124;SDS011;10223;50.862;4.360;2023-10-31T04:56:59;18.77;;;12.30;;
20124;SDS011;10223;50.862;4.360;2023-10-31T04:59:25;20.73;;;11.33;;
20124;SDS011;10223;50.862;4.360;2023-10-31T05:01:52;21.13;;;12.00;;
20124;SDS011;10223;50.862;4.360;2023-10-31T05:04:20;19.17;;;12.07;;
20124;SDS011;10223;50.862;4.360;2023-10-31T05:06:47;19.60;;;12.57;;
20124;SDS011;10223;50.862;4.360;2023-10-31T05:09:14;18.87;;;12.53;;
20124;SDS011;10223;50.862;4.360;2023-10-31T05:11:41;21.33;;;12.70;;
20124;SDS011;10223;50.862;4.360;2023-10-31T05:14:10;20.20;;;12.37;;
20124;SDS011;10223;50.862;4.360;2023-10-31T05:16:40;18.97;;;12.43;;
20124;SDS011;10223;50.862;4.360;2023-10-31T05:19:07;17.97;;;11.80;;
20124;SDS011;10223;50.862;4.360;2023-10-31T05:21:34;19.77;;;12.20;;
20124;SDS011;10223;50.862;4.360;2023-10-31T05:24:01;17.27;;;9.97;;
20124;SDS011;10223;50.862;4.360;2023-10-31T05:26:28;18.93;;;11.93;;
20124;SDS011;10223;50.862;4.360;2023-10-31T05:28:55;18.13;;;11.73;;
20124;SDS011;10223;50.862;4.360;2023-10-31T05:31:24;21.27;;;11.37;;
20124;SDS011;10223;50.862;4.360;2023-10-31T05:33:51;19.00;;;10.83;;
20124;SDS011;10223;50.862;4.360;2023-10-31T05:36:18;17.47;;;10.77;;
20124;SDS011;10223;50.862;4.360;2023-10-31T05:38:45;16.83;;;11.63;;
20124;SDS011;10223;50.862;4.360;2023-10-31T05:41:13;16.70;;;11.10;;
20124;SDS011;10223;50.862;4.360;2023-10-31T05:43:40;14.83;;;10.50;;
20124;SDS011;10223;50.862;4.360;2023-10-31T05:46:07;18.67;;;12.07;;
20124;SDS011;10223;50.862;4.360;2023-10-31T05:48:38;17.80;;;11.13;;
20124;SDS011;10223;50.862;4.360;2023-10-31T05:51:05;17.20;;;11.37;;
20124;SDS011;10223;50.862;4.360;2023-10-31T05:53:37;19.13;;;12.30;;
20124;SDS011;10223;50.862;4.360;2023-10-31T05:56:06;21.33;;;12.70;;
20124;SDS011;10223;50.862;4.360;2023-10-31T05:58:33;19.17;;;12.03;;
20124;SDS011;10223;50.862;4.360;2023-10-31T06:01:00;18.60;;;11.93;;
20124;SDS011;10223;50.862;4.360;2023-10-31T06:03:27;22.60;;;12.00;;
20124;SDS011;10223;50.862;4.360;2023-10-31T06:05:55;21.00;;;12.43;;
20124;SDS011;10223;50.862;4.360;2023-10-31T06:08:22;17.57;;;11.53;;
20124;SDS011;10223;50.862;4.360;2023-10-31T06:10:52;20.63;;;11.73;;
20124;SDS011;10223;50.862;4.360;2023-10-31T06:13:19;17.20;;;11.73;;
20124;SDS011;10223;50.862;4.360;2023-10-31T06:15:46;18.37;;;11.57;;
20124;SDS011;10223;50.862;4.360;2023-10-31T06:18:13;20.10;;;11.73;;
20124;SDS011;10223;50.862;4.360;2023-10-31T06:20:40;19.20;;;11.67;;
20124;SDS011;10223;50.862;4.360;2023-10-31T06:23:08;17.20;;;11.37;;
20124;SDS011;10223;50.862;4.360;2023-10-31T06:25:35;14.33;;;9.90;;
20124;SDS011;10223;50.862;4.360;2023-10-31T06:28:02;16.53;;;10.93;;
20124;SDS011;10223;50.862;4.360;2023-10-31T06:30:29;17.27;;;10.43;;
20124;SDS011;10223;50.862;4.360;2023-10-31T06:32:56;16.23;;;9.97;;
20124;SDS011;10223;50.862;4.360;2023-10-31T06:35:24;17.03;;;10.33;;
20124;SDS011;10223;50.862;4.360;2023-10-31T06:37:51;15.87;;;10.10;;
20124;SDS011;10223;50.862;4.360;2023-10-31T06:40:20;16.67;;;10.27;;
20124;SDS011;10223;50.862;4.360;2023-10-31T06:42:47;15.37;;;9.53;;
20124;SDS011;10223;50.862;4.360;2023-10-31T06:45:13;14.73;;;9.60;;
20124;SDS011;10223;50.862;4.360;2023-10-31T06:47:40;23.27;;;10.90;;
20124;SDS011;10223;50.862;4.360;2023-10-31T06:50:08;16.20;;;10.27;;
20124;SDS011;10223;50.862;4.360;2023-10-31T06:52:35;15.67;;;10.17;;
20124;SDS011;10223;50.862;4.360;2023-10-31T06:55:02;17.73;;;10.30;;
20124;SDS011;10223;50.862;4.360;2023-10-31T06:57:31;15.93;;;8.87;;
20124;SDS011;10223;50.862;4.360;2023-10-31T06:59:58;14.83;;;10.73;;
20124;SDS011;10223;50.862;4.360;2023-10-31T07:02:25;16.60;;;8.60;;
20124;SDS011;10223;50.862;4.360;2023-10-31T07:04:51;16.27;;;9.07;;
20124;SDS011;10223;50.862;4.360;2023-10-31T07:07:18;13.63;;;8.93;;
20124;SDS011;10223;50.862;4.360;2023-10-31T07:09:45;17.17;;;8.80;;
20124;SDS011;10223;50.862;4.360;2023-10-31T07:12:12;15.80;;;9.20;;
20124;SDS011;10223;50.862;4.360;2023-10-31T07:14:40;12.60;;;8.27;;
20124;SDS011;10223;50.862;4.360;2023-10-31T07:17:07;13.30;;;8.97;;
20124;SDS011;10223;50.862;4.360;2023-10-31T07:19:34;13.27;;;7.47;;
20124;SDS011;10223;50.862;4.360;2023-10-31T07:22:01;12.20;;;7.90;;
20124;SDS011;10223;50.862;4.360;2023-10-31T07:24:28;14.50;;;8.43;;
20124;SDS011;10223;50.862;4.360;2023-10-31T07:26:55;12.40;;;7.63;;
20124;SDS011;10223;50.862;4.360;2023-10-31T07:29:21;17.30;;;8.50;;
20124;SDS011;10223;50.862;4.360;2023-10-31T07:31:50;14.00;;;8.37;;
20124;SDS011;10223;50.862;4.360;2023-10-31T07:34:16;13.67;;;8.63;;
20124;SDS011;10223;50.862;4.360;2023-10-31T07:36:43;11.77;;;7.97;;
20124;SDS011;10223;50.862;4.360;2023-10-31T07:39:10;14.07;;;9.07;;
20124;SDS011;10223;50.862;4.360;2023-10-31T07:41:37;12.50;;;7.67;;
20124;SDS011;10223;50.862;4.360;2023-10-31T07:44:04;14.17;;;8.23;;
20124;SDS011;10223;50.862;4.360;2023-10-31T07:46:32;14.30;;;8.53;;
20124;SDS011;10223;50.862;4.360;2023-10-31T07:49:01;13.87;;;8.90;;
20124;SDS011;10223;50.862;4.360;2023-10-31T07:51:27;20.80;;;10.03;;
20124;SDS011;10223;50.862;4.360;2023-10-31T07:53:54;13.30;;;8.37;;
20124;SDS011;10223;50.862;4.360;2023-10-31T07:56:23;10.53;;;7.23;;
20124;SDS011;10223;50.862;4.360;2023-10-31T07:58:50;11.67;;;7.43;;
20124;SDS011;10223;50.862;4.360;2023-10-31T08:01:17;12.20;;;7.70;;
20124;SDS011;10223;50.862;4.360;2023-10-31T08:03:45;13.97;;;7.73;;
20124;SDS011;10223;50.862;4.360;2023-10-31T08:06:14;9.50;;;6.87;;
20124;SDS011;10223;50.862;4.360;2023-10-31T08:08:41;10.43;;;7.07;;
20124;SDS011;10223;50.862;4.360;2023-10-31T08:11:08;10.73;;;6.67;;
20124;SDS011;10223;50.862;4.360;2023-10-31T08:13:37;13.93;;;6.30;;
20124;SDS011;10223;50.862;4.360;2023-10-31T08:16:05;10.40;;;5.27;;
20124;SDS011;10223;50.862;4.360;2023-10-31T08:18:33;9.80;;;5.87;;
20124;SDS011;10223;50.862;4.360;2023-10-31T08:21:00;10.80;;;7.07;;
20124;SDS011;10223;50.862;4.360;2023-10-31T08:23:29;11.73;;;6.33;;
20124;SDS011;10223;50.862;4.360;2023-10-31T08:25:56;9.23;;;5.93;;
20124;SDS011;10223;50.862;4.360;2023-10-31T08:28:23;9.83;;;6.00;;
20124;SDS011;10223;50.862;4.360;2023-10-31T08:30:50;12.87;;;6.23;;
20124;SDS011;10223;50.862;4.360;2023-10-31T08:33:17;11.17;;;5.40;;
20124;SDS011;10223;50.862;4.360;2023-10-31T08:35:44;7.50;;;5.10;;
20124;SDS011;10223;50.862;4.360;2023-10-31T08:38:12;10.60;;;6.27;;
20124;SDS011;10223;50.862;4.360;2023-10-31T08:40:40;12.70;;;5.30;;
20124;SDS011;10223;50.862;4.360;2023-10-31T08:43:07;11.03;;;5.23;;
20124;SDS011;10223;50.862;4.360;2023-10-31T08:45:34;8.37;;;5.07;;
20124;SDS011;10223;50.862;4.360;2023-10-31T08:48:01;17.03;;;5.57;;
20124;SDS011;10223;50.862;4.360;2023-10-31T08:50:28;11.77;;;5.47;;
20124;SDS011;10223;50.862;4.360;2023-10-31T08:52:55;9.47;;;5.43;;
20124;SDS011;10223;50.862;4.360;2023-10-31T08:55:22;10.27;;;5.37;;
20124;SDS011;10223;50.862;4.360;2023-10-31T08:57:51;13.23;;;5.53;;
20124;SDS011;10223;50.862;4.360;2023-10-31T09:00:18;9.83;;;5.03;;
20124;SDS011;10223;50.862;4.360;2023-10-31T09:02:45;7.43;;;4.90;;
20124;SDS011;10223;50.862;4.360;2023-10-31T09:05:12;13.57;;;5.37;;
20124;SDS011;10223;50.862;4.360;2023-10-31T09:07:39;12.73;;;5.17;;
20124;SDS011;10223;50.862;4.360;2023-10-31T09:10:07;11.33;;;5.10;;
20124;SDS011;10223;50.862;4.360;2023-10-31T09:12:34;10.77;;;4.83;;
20124;SDS011;10223;50.862;4.360;2023-10-31T09:15:02;12.13;;;5.10;;
20124;SDS011;10223;50.862;4.360;2023-10-31T09:17:30;11.50;;;5.30;;
20124;SDS011;10223;50.862;4.360;2023-10-31T09:19:57;10.27;;;4.50;;
20124;SDS011;10223;50.862;4.360;2023-10-31T09:22:24;14.07;;;5.20;;
20124;SDS011;10223;50.862;4.360;2023-10-31T09:24:51;12.27;;;4.80;;
20124;SDS011;10223;50.862;4.360;2023-10-31T09:27:18;12.17;;;5.13;;
20124;SDS011;10223;50.862;4.360;2023-10-31T09:29:45;8.37;;;4.70;;
20124;SDS011;10223;50.862;4.360;2023-10-31T09:32:14;14.10;;;4.93;;
20124;SDS011;10223;50.862;4.360;2023-10-31T09:34:41;12.50;;;5.20;;
20124;SDS011;10223;50.862;4.360;2023-10-31T09:37:08;11.77;;;5.60;;
20124;SDS011;10223;50.862;4.360;2023-10-31T09:39:35;12.93;;;5.40;;
20124;SDS011;10223;50.862;4.360;2023-10-31T09:42:02;9.27;;;4.57;;
20124;SDS011;10223;50.862;4.360;2023-10-31T09:44:35;15.77;;;5.10;;
20124;SDS011;10223;50.862;4.360;2023-10-31T09:47:02;14.03;;;5.67;;
20124;SDS011;10223;50.862;4.360;2023-10-31T09:49:31;11.47;;;5.07;;
20124;SDS011;10223;50.862;4.360;2023-10-31T09:51:57;11.40;;;5.93;;
20124;SDS011;10223;50.862;4.360;2023-10-31T09:54:25;16.20;;;5.30;;
20124;SDS011;10223;50.862;4.360;2023-10-31T09:56:52;10.50;;;5.73;;
20124;SDS011;10223;50.862;4.360;2023-10-31T09:59:19;9.53;;;5.03;;
20124;SDS011;10223;50.862;4.360;2023-10-31T10:01:46;10.57;;;5.00;;
20124;SDS011;10223;50.862;4.360;2023-10-31T10:04:13;10.67;;;6.27;;
20124;SDS011;10223;50.862;4.360;2023-10-31T10:06:50;13.33;;;6.27;;
20124;SDS011;10223;50.862;4.360;2023-10-31T10:09:18;10.10;;;5.80;;
20124;SDS011;10223;50.862;4.360;2023-10-31T10:11:44;13.20;;;5.60;;
20124;SDS011;10223;50.862;4.360;2023-10-31T10:14:12;12.60;;;5.30;;
20124;SDS011;10223;50.862;4.360;2023-10-31T10:16:39;13.63;;;5.60;;
20124;SDS011;10223;50.862;4.360;2023-10-31T10:19:14;13.47;;;5.40;;
20124;SDS011;10223;50.862;4.360;2023-10-31T10:21:46;13.87;;;5.70;;
20124;SDS011;10223;50.862;4.360;2023-10-31T10:24:15;14.97;;;5.57;;
20124;SDS011;10223;50.862;4.360;2023-10-31T10:26:42;18.27;;;4.90;;
20124;SDS011;10223;50.862;4.360;2023-10-31T10:29:09;12.83;;;5.33;;
20124;SDS011;10223;50.862;4.360;2023-10-31T10:31:36;13.80;;;5.00;;
20124;SDS011;10223;50.862;4.360;2023-10-31T10:34:03;17.33;;;5.57;;
20124;SDS011;10223;50.862;4.360;2023-10-31T10:36:31;11.77;;;5.70;;
20124;SDS011;10223;50.862;4.360;2023-10-31T10:38:59;12.07;;;5.53;;
20124;SDS011;10223;50.862;4.360;2023-10-31T10:41:27;13.27;;;5.33;;
20124;SDS011;10223;50.862;4.360;2023-10-31T10:43:56;17.37;;;5.43;;
20124;SDS011;10223;50.862;4.360;2023-10-31T10:46:30;15.10;;;5.73;;
20124;SDS011;10223;50.862;4.360;2023-10-31T10:48:59;13.80;;;5.50;;
20124;SDS011;10223;50.862;4.360;2023-10-31T10:51:29;13.97;;;5.53;;
20124;SDS011;10223;50.862;4.360;2023-10-31T10:54:02;11.73;;;5.33;;
20124;SDS011;10223;50.862;4.360;2023-10-31T10:56:37;10.00;;;5.10;;
20124;SDS011;10223;50.862;4.360;2023-10-31T10:59:07;15.50;;;5.90;;
20124;SDS011;10223;50.862;4.360;2023-10-31T11:01:39;14.70;;;5.57;;
20124;SDS011;10223;50.862;4.360;2023-10-31T11:04:07;12.10;;;5.27;;
20124;SDS011;10223;50.862;4.360;2023-10-31T11:06:36;14.60;;;5.40;;
20124;SDS011;10223;50.862;4.360;2023-10-31T11:09:04;14.07;;;6.13;;
20124;SDS011;10223;50.862;4.360;2023-10-31T11:11:31;12.73;;;6.37;;
20124;SDS011;10223;50.862;4.360;2023-10-31T11:14:01;13.60;;;6.27;;
20124;SDS011;10223;50.862;4.360;2023-10-31T11:16:29;13.67;;;6.57;;
20124;SDS011;10223;50.862;4.360;2023-10-31T11:19:00;15.50;;;6.67;;
20124;SDS011;10223;50.862;4.360;2023-10-31T11:21:27;15.93;;;8.17;;
20124;SDS011;10223;50.862;4.360;2023-10-31T11:23:58;16.43;;;8.13;;
20124;SDS011;10223;50.862;4.360;2023-10-31T11:26:25;20.17;;;10.53;;
20124;SDS011;10223;50.862;4.360;2023-10-31T11:28:52;24.60;;;11.43;;
20124;SDS011;10223;50.862;4.360;2023-10-31T11:31:29;24.40;;;10.97;;
20124;SDS011;10223;50.862;4.360;2023-10-31T11:33:56;22.67;;;10.97;;
20124;SDS011;10223;50.862;4.360;2023-10-31T11:36:23;24.70;;;11.97;;
20124;SDS011;10223;50.862;4.360;2023-10-31T11:38:50;22.10;;;11.93;;
20124;SDS011;10223;50.862;4.360;2023-10-31T11:41:37;26.73;;;12.43;;
20124;SDS011;10223;50.862;4.360;2023-10-31T11:44:05;23.50;;;12.13;;
20124;SDS011;10223;50.862;4.360;2023-10-31T11:46:32;22.37;;;13.17;;
20124;SDS011;10223;50.862;4.360;2023-10-31T11:48:59;28.77;;;12.93;;
20124;SDS011;10223;50.862;4.360;2023-10-31T11:51:27;23.47;;;12.60;;
20124;SDS011;10223;50.862;4.360;2023-10-31T11:53:55;29.07;;;13.67;;
20124;SDS011;10223;50.862;4.360;2023-10-31T11:56:22;23.77;;;12.70;;
20124;SDS011;10223;50.862;4.360;2023-10-31T11:58:57;20.03;;;10.17;;
20124;SDS011;10223;50.862;4.360;2023-10-31T12:01:26;20.77;;;11.00;;
20124;SDS011;10223;50.862;4.360;2023-10-31T12:03:52;25.43;;;12.37;;
20124;SDS011;10223;50.862;4.360;2023-10-31T12:06:19;21.33;;;11.20;;
20124;SDS011;10223;50.862;4.360;2023-10-31T12:08:47;22.87;;;9.90;;
20124;SDS011;10223;50.862;4.360;2023-10-31T12:11:16;17.97;;;9.97;;
20124;SDS011;10223;50.862;4.360;2023-10-31T12:13:52;20.07;;;9.50;;
20124;SDS011;10223;50.862;4.360;2023-10-31T12:16:22;15.50;;;9.47;;
20124;SDS011;10223;50.862;4.360;2023-10-31T12:18:56;23.37;;;9.30;;
20124;SDS011;10223;50.862;4.360;2023-10-31T12:21:38;17.03;;;9.30;;
20124;SDS011;10223;50.862;4.360;2023-10-31T12:24:08;18.90;;;9.30;;
20124;SDS011;10223;50.862;4.360;2023-10-31T12:26:36;17.50;;;8.53;;
20124;SDS011;10223;50.862;4.360;2023-10-31T12:29:07;17.40;;;9.57;;
20124;SDS011;10223;50.862;4.360;2023-10-31T12:31:39;18.53;;;7.97;;
20124;SDS011;10223;50.862;4.360;2023-10-31T12:34:09;14.67;;;8.33;;
20124;SDS011;10223;50.862;4.360;2023-10-31T12:36:36;21.77;;;8.40;;
20124;SDS011;10223;50.862;4.360;2023-10-31T12:39:06;16.10;;;7.50;;
20124;SDS011;10223;50.862;4.360;2023-10-31T12:41:39;15.47;;;8.77;;
20124;SDS011;10223;50.862;4.360;2023-10-31T12:44:06;14.97;;;7.83;;
20124;SDS011;10223;50.862;4.360;2023-10-31T12:46:35;18.37;;;9.93;;
20124;SDS011;10223;50.862;4.360;2023-10-31T12:49:10;27.60;;;11.03;;
20124;SDS011;10223;50.862;4.360;2023-10-31T12:51:43;12.73;;;7.60;;
20124;SDS011;10223;50.862;4.360;2023-10-31T12:54:26;16.47;;;8.47;;
20124;SDS011;10223;50.862;4.360;2023-10-31T12:56:57;11.67;;;6.80;;
20124;SDS011;10223;50.862;4.360;2023-10-31T12:59:25;10.03;;;6.37;;
20124;SDS011;10223;50.862;4.360;2023-10-31T13:01:52;12.33;;;6.23;;
20124;SDS011;10223;50.862;4.360;2023-10-31T13:04:25;10.50;;;5.57;;
20124;SDS011;10223;50.862;4.360;2023-10-31T13:06:59;9.40;;;5.30;;
20124;SDS011;10223;50.862;4.360;2023-10-31T13:09:28;7.43;;;4.10;;
20124;SDS011;10223;50.862;4.360;2023-10-31T13:12:00;11.47;;;4.90;;
20124;SDS011;10223;50.862;4.360;2023-10-31T13:14:27;10.57;;;4.77;;
20124;SDS011;10223;50.862;4.360;2023-10-31T13:16:54;7.17;;;3.87;;
20124;SDS011;10223;50.862;4.360;2023-10-31T13:19:21;6.37;;;4.20;;
20124;SDS011;10223;50.862;4.360;2023-10-31T13:21:49;9.30;;;4.43;;
20124;SDS011;10223;50.862;4.360;2023-10-31T13:24:16;9.57;;;5.03;;
20124;SDS011;10223;50.862;4.360;2023-10-31T13:26:44;11.03;;;5.10;;
20124;SDS011;10223;50.862;4.360;2023-10-31T13:29:16;9.67;;;5.00;;
20124;SDS011;10223;50.862;4.360;2023-10-31T13:31:43;12.17;;;5.30;;
20124;SDS011;10223;50.862;4.360;2023-10-31T13:34:10;12.10;;;6.07;;
20124;SDS011;10223;50.862;4.360;2023-10-31T13:36:37;9.20;;;5.70;;
20124;SDS011;10223;50.862;4.360;2023-10-31T13:39:05;12.50;;;6.00;;
20124;SDS011;10223;50.862;4.360;2023-10-31T13:41:32;13.27;;;6.33;;
20124;SDS011;10223;50.862;4.360;2023-10-31T13:43:59;17.53;;;6.90;;
20124;SDS011;10223;50.862;4.360;2023-10-31T13:46:28;14.27;;;6.70;;
20124;SDS011;10223;50.862;4.360;2023-10-31T13:48:56;14.00;;;6.27;;
20124;SDS011;10223;50.862;4.360;2023-10-31T13:51:23;9.57;;;5.77;;
20124;SDS011;10223;50.862;4.360;2023-10-31T13:53:50;12.00;;;6.23;;
20124;SDS011;10223;50.862;4.360;2023-10-31T13:56:18;12.53;;;6.13;;
20124;SDS011;10223;50.862;4.360;2023-10-31T13:58:45;9.93;;;5.40;;
20124;SDS011;10223;50.862;4.360;2023-10-31T14:01:13;13.97;;;5.17;;
20124;SDS011;10223;50.862;4.360;2023-10-31T14:03:40;12.73;;;4.83;;
20124;SDS011;10223;50.862;4.360;2023-10-31T14:06:08;11.63;;;4.87;;
20124;SDS011;10223;50.862;4.360;2023-10-31T14:08:36;8.17;;;4.50;;
20124;SDS011;10223;50.862;4.360;2023-10-31T14:11:03;10.67;;;4.13;;
20124;SDS011;10223;50.862;4.360;2023-10-31T14:13:35;7.97;;;4.00;;
20124;SDS011;10223;50.862;4.360;2023-10-31T14:16:02;6.63;;;3.60;;
20124;SDS011;10223;50.862;4.360;2023-10-31T14:18:29;7.83;;;4.10;;
20124;SDS011;10223;50.862;4.360;2023-10-31T14:20:56;12.17;;;4.03;;
20124;SDS011;10223;50.862;4.360;2023-10-31T14:23:23;14.27;;;3.87;;
20124;SDS011;10223;50.862;4.360;2023-10-31T14:25:50;8.33;;;3.47;;
20124;SDS011;10223;50.862;4.360;2023-10-31T14:28:17;7.80;;;3.73;;
20124;SDS011;10223;50.862;4.360;2023-10-31T14:30:46;6.57;;;3.67;;
20124;SDS011;10223;50.862;4.360;2023-10-31T14:33:13;8.73;;;3.30;;
20124;SDS011;10223;50.862;4.360;2023-10-31T14:35:40;7.83;;;3.77;;